Time;durP1;ratioP1;P1;durP2;ratioP2;P2;SDS_P1;SDS_P2;PMS_P1;PMS_P2;Temp;Humidity;BMP_temperature;BMP_pressure;BME280_temperature;BME280_humidity;BME280_pressure;Samples;Min_cycle;Max_cycle;Signal;HPM_P1;HPM_P2
2023/12/07 00:01:03;;;;;;;10.73;7.07;;;;;;;2.10;82.42;95783.63;4965340;28;20192;-80
2023/12/07 00:03:28;;;;;;;11.50;7.17;;;;;;;1.88;83.40;95787.44;4969106;28;20232;-80
2023/12/07 00:05:53;;;;;;;11.67;6.90;;;;;;;2.12;82.78;95792.88;4974698;28;20195;-80
2023/12/07 00:08:19;;;;;;;9.63;6.57;;;;;;;2.08;82.49;95798.25;4960008;28;20188;-80
2023/12/07 00:10:44;;;;;;;10.17;7.57;;;;;;;2.08;82.93;95799.09;4956121;28;20195;-80
2023/12/07 00:13:09;;;;;;;11.23;7.13;;;;;;;2.13;82.55;95801.38;4974358;28;20258;-80
2023/12/07 00:15:35;;;;;;;11.87;7.37;;;;;;;2.09;82.80;95799.91;4988722;28;20336;-80
2023/12/07 00:18:00;;;;;;;8.77;7.33;;;;;;;2.11;83.11;95796.34;4978175;28;20690;-80
2023/12/07 00:20:26;;;;;;;12.10;7.70;;;;;;;2.03;84.34;95795.13;4973793;28;20179;-80
2023/12/07 00:22:51;;;;;;;11.03;7.30;;;;;;;2.12;83.41;95797.16;4974503;28;20196;-80
2023/12/07 00:25:16;;;;;;;10.30;7.40;;;;;;;2.12;83.68;95799.72;4974442;28;20207;-80
2023/12/07 00:27:42;;;;;;;12.23;8.03;;;;;;;2.15;83.35;95797.81;4957729;28;20274;-80
2023/12/07 00:30:08;;;;;;;9.77;7.93;;;;;;;2.24;83.10;95799.00;4974598;28;20192;-80
2023/12/07 00:32:34;;;;;;;15.20;7.57;;;;;;;2.16;83.40;95802.03;4974224;28;20192;-81
2023/12/07 00:34:59;;;;;;;10.53;7.70;;;;;;;2.17;83.63;95807.97;4990481;28;20207;-80
2023/12/07 00:37:25;;;;;;;11.80;7.57;;;;;;;2.23;83.52;95807.63;4972459;28;20192;-80
2023/12/07 00:39:50;;;;;;;13.33;7.87;;;;;;;2.24;83.13;95811.81;4991065;28;20192;-80
2023/12/07 00:42:15;;;;;;;12.43;7.77;;;;;;;2.09;83.57;95807.59;4977964;28;20227;-80
2023/12/07 00:44:41;;;;;;;9.93;7.30;;;;;;;2.03;84.16;95810.50;4989994;28;20204;-80
2023/12/07 00:47:07;;;;;;;13.30;8.40;;;;;;;2.25;83.31;95813.47;4973136;28;20239;-80
2023/12/07 00:49:32;;;;;;;9.87;7.17;;;;;;;2.21;83.79;95812.84;4979633;28;20184;-80
2023/12/07 00:51:58;;;;;;;12.23;8.00;;;;;;;2.23;83.65;95807.63;4957725;28;20187;-80
2023/12/07 00:54:23;;;;;;;10.93;7.70;;;;;;;2.20;83.82;95813.72;4973719;28;20216;-80
2023/12/07 00:56:48;;;;;;;17.07;7.63;;;;;;;2.31;83.36;95815.69;4989496;28;20202;-80
2023/12/07 00:59:14;;;;;;;12.53;7.50;;;;;;;2.34;83.07;95820.63;4959651;28;20221;-80
2023/12/07 01:01:40;;;;;;;11.63;7.33;;;;;;;2.22;83.37;95817.03;4957925;28;20194;-80
2023/12/07 01:04:05;;;;;;;10.77;7.50;;;;;;;2.31;83.44;95822.53;4969952;28;20224;-80
2023/12/07 01:06:31;;;;;;;9.97;7.07;;;;;;;2.42;83.30;95823.53;4979703;28;20191;-80
2023/12/07 01:08:57;;;;;;;10.57;7.47;;;;;;;2.43;82.70;95824.38;4969708;28;20625;-80
2023/12/07 01:11:22;;;;;;;14.70;8.37;;;;;;;2.44;82.79;95826.00;4979496;28;20233;-80
2023/12/07 01:13:47;;;;;;;12.87;7.70;;;;;;;2.35;83.19;95827.38;4959388;28;20681;-81
2023/12/07 01:16:13;;;;;;;11.47;7.47;;;;;;;2.35;83.69;95817.13;4977799;28;20208;-81
2023/12/07 01:18:38;;;;;;;11.73;7.97;;;;;;;2.30;83.55;95826.00;4978365;28;20188;-81
2023/12/07 01:21:03;;;;;;;10.87;7.10;;;;;;;2.37;83.27;95825.53;4982110;28;20200;-82
2023/12/07 01:23:29;;;;;;;12.03;7.67;;;;;;;2.34;83.34;95830.88;4986893;28;20257;-82
2023/12/07 01:25:54;;;;;;;13.83;7.73;;;;;;;2.25;83.88;95824.53;4972925;28;20218;-82
2023/12/07 01:28:20;;;;;;;11.30;7.50;;;;;;;2.35;83.43;95827.38;4998605;28;20253;-82
2023/12/07 01:30:45;;;;;;;12.93;7.53;;;;;;;2.35;83.26;95829.94;4963795;28;20191;-80
2023/12/07 01:33:10;;;;;;;13.73;8.13;;;;;;;2.37;83.08;95829.84;4984467;28;20191;-81
2023/12/07 01:35:36;;;;;;;11.37;7.60;;;;;;;2.32;83.28;95831.88;4979378;28;20206;-82
2023/12/07 01:38:01;;;;;;;11.60;7.70;;;;;;;2.35;83.18;95841.94;4980811;28;20188;-81
2023/12/07 01:40:26;;;;;;;12.93;7.80;;;;;;;2.30;83.57;95841.38;4979696;28;20198;-81
2023/12/07 01:42:54;;;;;;;13.13;7.57;;;;;;;2.37;82.72;95846.03;4976862;28;20195;-82
2023/12/07 01:45:20;;;;;;;9.77;7.40;;;;;;;2.36;82.55;95838.47;4971287;28;20640;-81
2023/12/07 01:47:46;;;;;;;10.20;7.50;;;;;;;2.38;82.09;95832.31;4979038;28;20207;-81
2023/12/07 01:50:14;;;;;;;10.57;7.00;;;;;;;2.41;82.44;95837.28;4980185;28;20717;-82
2023/12/07 01:52:44;;;;;;;11.43;7.60;;;;;;;2.36;82.41;95841.00;4980422;28;20199;-82
2023/12/07 01:55:10;;;;;;;10.67;7.33;;;;;;;2.33;82.62;95836.09;4983469;28;20203;-82
2023/12/07 01:57:36;;;;;;;12.13;7.53;;;;;;;2.29;82.47;95845.66;4981501;28;20242;-81
2023/12/07 02:00:03;;;;;;;8.57;6.60;;;;;;;2.18;82.44;95835.22;4978507;28;20188;-81
2023/12/07 02:02:29;;;;;;;10.70;7.00;;;;;;;2.37;82.29;95840.91;4996007;28;20184;-81
2023/12/07 02:04:55;;;;;;;12.13;7.00;;;;;;;2.38;81.91;95842.56;4986359;28;20215;-81
2023/12/07 02:07:21;;;;;;;9.67;6.97;;;;;;;2.33;81.92;95838.66;4964435;28;20191;-82
2023/12/07 02:09:47;;;;;;;11.50;6.60;;;;;;;2.28;81.85;95841.47;4978212;28;20225;-80
2023/12/07 02:12:12;;;;;;;11.57;6.73;;;;;;;2.28;82.04;95826.09;4977864;28;20693;-80
2023/12/07 02:14:37;;;;;;;10.23;6.87;;;;;;;2.26;81.80;95830.50;4961483;28;20199;-81
2023/12/07 02:17:38;;;;;;;10.27;7.13;;;;;;;2.30;81.57;95821.72;4954828;28;20197;-80
2023/12/07 02:20:06;;;;;;;10.67;6.77;;;;;;;2.21;81.94;95823.09;4939872;28;20214;-81
2023/12/07 02:22:43;;;;;;;9.70;6.40;;;;;;;2.19;82.04;95830.00;4982072;28;20246;-81
2023/12/07 02:25:10;;;;;;;8.87;6.00;;;;;;;2.16;82.07;95831.94;4975262;28;20204;-80
2023/12/07 02:27:48;;;;;;;10.83;6.47;;;;;;;2.16;82.37;95834.50;4982769;28;20186;-81
2023/12/07 02:30:14;;;;;;;13.73;6.47;;;;;;;2.06;82.15;95830.84;4959796;28;20219;-81
2023/12/07 02:32:40;;;;;;;9.73;7.07;;;;;;;2.07;82.64;95828.19;4993251;28;20188;-81
2023/12/07 02:35:07;;;;;;;8.23;6.10;;;;;;;2.01;82.04;95817.47;4968657;28;20239;-80
2023/12/07 02:37:46;;;;;;;10.43;6.00;;;;;;;2.07;82.19;95820.50;4976451;28;20188;-82
2023/12/07 02:40:15;;;;;;;11.57;6.20;;;;;;;1.86;82.60;95827.69;4976168;28;20550;-81
2023/12/07 02:42:42;;;;;;;9.33;6.20;;;;;;;2.05;81.54;95826.63;4978183;28;20654;-81
2023/12/07 02:45:09;;;;;;;12.60;6.70;;;;;;;1.98;81.65;95821.84;4980057;28;20763;-80
2023/12/07 02:47:35;;;;;;;8.10;5.70;;;;;;;1.95;81.51;95819.47;4969275;28;20180;-81
2023/12/07 02:50:00;;;;;;;7.37;5.77;;;;;;;1.95;81.29;95823.78;4966889;28;20180;-81
2023/12/07 02:52:25;;;;;;;12.47;6.37;;;;;;;1.89;81.35;95827.50;4976964;28;20191;-81
2023/12/07 02:54:51;;;;;;;7.43;6.33;;;;;;;1.79;81.37;95828.13;4972733;28;20207;-81
2023/12/07 02:57:16;;;;;;;9.90;6.27;;;;;;;1.73;82.02;95823.34;4976457;28;20198;-81
2023/12/07 02:59:42;;;;;;;8.80;6.10;;;;;;;1.68;81.67;95826.19;4976885;28;20210;-80
2023/12/07 03:02:07;;;;;;;10.33;5.80;;;;;;;1.61;82.39;95830.00;4976660;28;20180;-81
2023/12/07 03:04:32;;;;;;;7.97;5.63;;;;;;;1.61;82.39;95835.13;4975876;28;20295;-81
2023/12/07 03:06:58;;;;;;;12.27;6.43;;;;;;;1.60;82.62;95833.47;4973012;28;20196;-80
2023/12/07 03:09:24;;;;;;;9.77;5.87;;;;;;;1.50;82.43;95830.56;4962998;28;20188;-81
2023/12/07 03:11:50;;;;;;;7.67;6.20;;;;;;;1.51;82.14;95837.38;4960791;28;20682;-80
2023/12/07 03:14:15;;;;;;;8.60;5.90;;;;;;;1.48;82.38;95831.56;4974723;28;20211;-80
2023/12/07 03:16:40;;;;;;;9.30;6.40;;;;;;;1.50;82.64;95830.56;4953102;28;20274;-80
2023/12/07 03:19:06;;;;;;;8.53;5.77;;;;;;;1.39;82.62;95828.63;4976427;28;20283;-80
2023/12/07 03:21:31;;;;;;;7.40;5.27;;;;;;;1.36;83.01;95833.91;4975358;28;20223;-80
2023/12/07 03:23:56;;;;;;;8.37;6.10;;;;;;;1.33;83.01;95840.94;4975940;28;20242;-81
2023/12/07 03:26:22;;;;;;;12.27;5.83;;;;;;;1.21;83.53;95834.75;4959445;28;20527;-81
2023/12/07 03:28:47;;;;;;;9.30;6.33;;;;;;;1.16;84.25;95839.31;4957637;28;20259;-81
2023/12/07 03:31:12;;;;;;;11.17;6.40;;;;;;;1.04;85.00;95837.41;4959601;28;20191;-80
2023/12/07 03:33:38;;;;;;;9.53;5.87;;;;;;;1.08;84.30;95841.44;4959358;28;20204;-80
2023/12/07 03:36:04;;;;;;;8.53;6.03;;;;;;;1.11;84.12;95838.72;4981345;28;20214;-80
2023/12/07 03:38:29;;;;;;;9.63;6.23;;;;;;;1.08;84.04;95841.44;4990798;28;20716;-80
2023/12/07 03:40:54;;;;;;;8.97;6.37;;;;;;;1.03;84.23;95838.31;4959530;28;20184;-81
2023/12/07 03:43:23;;;;;;;10.53;6.67;;;;;;;1.08;83.96;95846.56;4974847;28;20636;-80
2023/12/07 03:45:48;;;;;;;9.80;6.87;;;;;;;0.97;84.58;95833.50;4972643;28;20180;-80
2023/12/07 03:48:13;;;;;;;13.20;6.67;;;;;;;0.94;84.61;95833.69;4972477;28;20279;-81
2023/12/07 03:50:39;;;;;;;12.17;6.33;;;;;;;0.94;84.32;95839.63;4953014;28;20258;-80
2023/12/07 03:53:04;;;;;;;11.03;6.60;;;;;;;0.92;84.03;95840.63;4963143;28;20192;-80
2023/12/07 03:55:29;;;;;;;8.73;5.70;;;;;;;0.83;84.82;95840.19;4974542;28;20627;-81
2023/12/07 03:57:55;;;;;;;12.00;6.17;;;;;;;0.83;85.12;95841.94;4973647;28;20208;-81
2023/12/07 04:00:21;;;;;;;8.93;6.50;;;;;;;0.81;84.65;95839.47;4973647;28;20240;-81
2023/12/07 04:02:46;;;;;;;7.83;5.97;;;;;;;0.75;84.73;95839.78;4973191;28;21002;-80
2023/12/07 04:05:12;;;;;;;8.13;6.20;;;;;;;0.78;85.09;95846.44;4974594;28;20252;-80
2023/12/07 04:07:37;;;;;;;10.60;5.53;;;;;;;0.80;84.24;95842.94;4974327;28;20188;-80
2023/12/07 04:10:05;;;;;;;10.70;5.87;;;;;;;0.77;84.28;95842.25;4965114;28;20650;-81
2023/12/07 04:12:30;;;;;;;8.97;6.13;;;;;;;0.74;84.63;95850.91;4974232;28;20192;-80
2023/12/07 04:14:56;;;;;;;11.47;7.67;;;;;;;0.71;84.72;95842.59;4974681;28;20579;-79
2023/12/07 04:17:21;;;;;;;7.87;5.70;;;;;;;0.70;84.56;95833.25;4977402;28;20211;-81
2023/12/07 04:19:47;;;;;;;7.13;5.80;;;;;;;0.68;84.34;95837.63;4960775;28;20194;-80
2023/12/07 04:22:12;;;;;;;12.00;6.40;;;;;;;0.62;84.69;95838.78;4962043;28;20697;-80
2023/12/07 04:24:37;;;;;;;7.50;5.73;;;;;;;0.57;84.63;95839.00;4973311;28;20203;-81
2023/12/07 04:27:03;;;;;;;11.00;6.83;;;;;;;0.56;84.58;95845.03;4979803;28;20227;-80
2023/12/07 04:29:28;;;;;;;15.13;8.00;;;;;;;0.51;84.46;95846.16;4974918;28;20188;-80
2023/12/07 04:31:54;;;;;;;14.50;8.00;;;;;;;0.46;84.87;95848.16;4974641;28;20562;-80
2023/12/07 04:34:19;;;;;;;10.90;7.47;;;;;;;0.42;84.38;95846.63;4955955;28;20303;-80
2023/12/07 04:36:45;;;;;;;9.73;6.83;;;;;;;0.38;84.85;95845.97;4957268;28;20219;-80
2023/12/07 04:39:10;;;;;;;9.20;6.20;;;;;;;0.35;85.24;95846.13;4973750;28;20232;-80
2023/12/07 04:41:35;;;;;;;8.33;5.83;;;;;;;0.37;85.23;95846.88;4974559;28;20230;-80
2023/12/07 04:44:01;;;;;;;9.33;5.80;;;;;;;0.34;85.37;95849.59;4992748;28;20204;-80
2023/12/07 04:46:28;;;;;;;7.43;5.63;;;;;;;0.36;85.22;95852.91;4967042;28;20235;-80
2023/12/07 04:48:53;;;;;;;7.77;5.50;;;;;;;0.35;85.32;95850.41;4972408;28;20202;-80
2023/12/07 04:51:19;;;;;;;9.80;5.73;;;;;;;0.35;85.27;95852.97;4971929;28;20184;-81
2023/12/07 04:53:44;;;;;;;8.47;5.63;;;;;;;0.33;85.31;95847.13;4944945;28;20235;-79
2023/12/07 04:56:09;;;;;;;8.80;7.07;;;;;;;0.36;85.13;95849.53;4958018;28;20253;-81
2023/12/07 04:58:35;;;;;;;9.30;6.33;;;;;;;0.32;85.21;95858.25;4973664;28;20242;-80
2023/12/07 05:01:01;;;;;;;8.80;6.30;;;;;;;0.33;85.51;95855.59;4972483;28;20257;-80
2023/12/07 05:03:26;;;;;;;13.13;6.67;;;;;;;0.26;85.34;95854.25;4991252;28;20333;-80
2023/12/07 05:05:52;;;;;;;8.97;6.10;;;;;;;0.21;85.63;95851.94;4983725;28;20526;-79
2023/12/07 05:08:17;;;;;;;7.10;5.43;;;;;;;0.27;85.35;95851.66;4960407;28;20191;-80
2023/12/07 05:10:43;;;;;;;12.17;6.53;;;;;;;0.26;85.53;95860.19;4957827;28;20187;-80
2023/12/07 05:13:08;;;;;;;8.97;6.67;;;;;;;0.21;85.54;95859.59;4983394;28;20695;-81
2023/12/07 05:15:34;;;;;;;8.93;6.37;;;;;;;0.19;85.63;95863.16;4986248;28;20207;-80
2023/12/07 05:17:59;;;;;;;8.17;5.97;;;;;;;0.20;85.49;95870.72;4972800;28;20191;-81
2023/12/07 05:20:26;;;;;;;8.47;5.60;;;;;;;0.16;85.66;95861.56;4973845;28;20195;-80
2023/12/07 05:22:52;;;;;;;7.93;5.33;;;;;;;0.14;85.24;95848.03;4959072;28;20186;-80
2023/12/07 05:25:18;;;;;;;9.87;6.53;;;;;;;0.14;85.42;95850.59;4972322;28;20286;-81
2023/12/07 05:27:44;;;;;;;7.93;5.77;;;;;;;0.14;85.30;95853.16;4973239;28;20211;-80
2023/12/07 05:30:10;;;;;;;6.90;5.03;;;;;;;0.10;85.44;95854.22;4959232;28;20270;-80
2023/12/07 05:32:35;;;;;;;6.87;5.30;;;;;;;-0.02;85.41;95847.97;4992094;28;20741;-81
2023/12/07 05:35:00;;;;;;;7.37;5.60;;;;;;;-0.04;85.65;95846.41;4965421;28;20223;-80
2023/12/07 05:37:26;;;;;;;8.63;5.13;;;;;;;0.06;85.19;95850.16;4974511;28;20286;-81
2023/12/07 05:39:51;;;;;;;5.77;4.80;;;;;;;0.08;84.36;95858.56;4969367;28;20184;-81
2023/12/07 05:42:16;;;;;;;8.83;5.13;;;;;;;0.03;84.69;95855.44;5000395;28;20188;-81
2023/12/07 05:44:42;;;;;;;9.87;5.77;;;;;;;0.02;85.03;95853.78;4995589;28;20199;-81
2023/12/07 05:47:07;;;;;;;10.23;6.33;;;;;;;-0.11;84.43;95851.00;4996649;28;20188;-79
2023/12/07 05:49:33;;;;;;;10.60;7.80;;;;;;;-0.16;84.92;95852.13;4999998;28;20195;-80
2023/12/07 05:51:58;;;;;;;12.10;7.30;;;;;;;-0.20;85.44;95855.72;4963216;28;20199;-81
2023/12/07 05:54:24;;;;;;;7.77;6.33;;;;;;;-0.18;85.48;95853.91;4981277;28;20204;-82
2023/12/07 05:56:49;;;;;;;8.43;5.70;;;;;;;-0.18;85.83;95848.81;4981591;28;20196;-82
2023/12/07 05:59:15;;;;;;;6.10;5.27;;;;;;;-0.15;85.60;95856.34;4988986;28;20184;-81
2023/12/07 06:01:40;;;;;;;9.40;5.67;;;;;;;-0.21;85.85;95854.91;4979595;28;20215;-79
2023/12/07 06:04:08;;;;;;;9.17;6.33;;;;;;;-0.18;85.11;95848.81;4978484;28;20230;-79
2023/12/07 06:06:34;;;;;;;9.33;5.83;;;;;;;-0.20;85.27;95845.50;4969824;28;20187;-79
2023/12/07 06:08:59;;;;;;;7.30;5.57;;;;;;;-0.19;85.54;95854.81;4985423;28;20202;-80
2023/12/07 06:11:24;;;;;;;12.87;6.90;;;;;;;-0.23;85.47;95854.16;4961246;28;20202;-80
2023/12/07 06:13:50;;;;;;;9.97;7.70;;;;;;;-0.20;85.03;95853.16;4979144;28;20211;-80
2023/12/07 06:16:17;;;;;;;9.57;7.60;;;;;;;-0.22;85.63;95853.25;4996489;28;20215;-80
2023/12/07 06:18:42;;;;;;;10.77;7.47;;;;;;;-0.30;85.80;95853.63;4978300;28;20360;-79
2023/12/07 06:21:08;;;;;;;9.63;6.67;;;;;;;-0.28;85.54;95856.91;4978714;28;20609;-79
2023/12/07 06:23:34;;;;;;;7.67;6.30;;;;;;;-0.37;86.05;95859.91;4977750;28;20635;-79
2023/12/07 06:25:59;;;;;;;11.70;6.03;;;;;;;-0.42;86.77;95859.31;4987225;28;20747;-79
2023/12/07 06:28:24;;;;;;;8.33;6.03;;;;;;;-0.40;87.01;95859.25;4965274;28;20199;-80
2023/12/07 06:30:50;;;;;;;8.47;5.83;;;;;;;-0.34;87.25;95851.31;4985373;28;20614;-79
2023/12/07 06:33:15;;;;;;;9.87;5.73;;;;;;;-0.26;86.60;95858.59;4970313;28;20195;-81
2023/12/07 06:35:40;;;;;;;10.30;6.17;;;;;;;-0.26;86.13;95864.53;4982105;28;20603;-81
2023/12/07 06:38:06;;;;;;;9.00;5.50;;;;;;;-0.29;86.52;95857.81;4970547;28;20219;-80
2023/12/07 06:40:31;;;;;;;8.27;6.17;;;;;;;-0.23;86.25;95855.88;4996562;28;20203;-80
2023/12/07 06:42:57;;;;;;;9.17;6.13;;;;;;;-0.26;86.10;95850.94;4978255;28;20244;-80
2023/12/07 06:45:22;;;;;;;8.13;5.63;;;;;;;-0.26;86.35;95853.50;4981955;28;20194;-80
2023/12/07 06:47:47;;;;;;;10.33;6.20;;;;;;;-0.30;86.38;95858.72;4961054;28;20279;-80
2023/12/07 06:50:13;;;;;;;8.97;6.40;;;;;;;-0.24;86.54;95862.72;4993389;28;20204;-80
2023/12/07 06:52:39;;;;;;;7.63;5.77;;;;;;;-0.23;86.45;95863.53;4980033;28;20239;-80
2023/12/07 06:55:06;;;;;;;11.33;6.17;;;;;;;-0.25;86.30;95867.91;4991523;28;20253;-80
2023/12/07 06:57:32;;;;;;;8.97;5.63;;;;;;;-0.33;86.04;95866.53;4976463;28;20198;-80
2023/12/07 06:59:57;;;;;;;7.23;5.50;;;;;;;-0.17;86.19;95865.81;4961883;28;20203;-80
2023/12/07 07:02:23;;;;;;;9.07;5.93;;;;;;;-0.25;86.55;95865.34;4978545;28;20237;-80
2023/12/07 07:04:49;;;;;;;13.53;7.47;;;;;;;-0.25;86.31;95870.44;4982288;28;20219;-82
2023/12/07 07:07:15;;;;;;;10.37;6.50;;;;;;;-0.26;86.00;95869.63;4979335;28;20194;-83
2023/12/07 07:09:40;;;;;;;14.67;7.93;;;;;;;-0.19;86.29;95865.84;4980218;28;20193;-81
2023/12/07 07:12:06;;;;;;;9.73;6.73;;;;;;;-0.21;85.77;95857.44;4971322;28;20206;-81
2023/12/07 07:14:31;;;;;;;9.43;7.20;;;;;;;-0.13;85.26;95855.34;4985845;28;20271;-79
2023/12/07 07:16:56;;;;;;;8.47;6.00;;;;;;;-0.13;85.14;95854.53;5005041;28;20192;-85
2023/12/07 07:19:22;;;;;;;8.53;5.90;;;;;;;-0.05;84.62;95852.44;4982575;28;20195;-80
2023/12/07 07:21:47;;;;;;;9.20;5.90;;;;;;;-0.08;85.06;95862.81;4966232;28;20399;-81
2023/12/07 07:24:12;;;;;;;7.97;5.67;;;;;;;-0.12;85.19;95861.28;4982735;28;20215;-79
2023/12/07 07:26:38;;;;;;;10.53;6.13;;;;;;;-0.17;84.84;95855.59;4979653;28;20634;-85
2023/12/07 07:29:04;;;;;;;8.70;5.57;;;;;;;-0.08;84.92;95866.19;4976681;28;20297;-81
2023/12/07 07:31:30;;;;;;;6.47;5.43;;;;;;;-0.11;84.97;95862.94;4959881;28;20744;-80
2023/12/07 07:33:55;;;;;;;11.03;5.50;;;;;;;-0.04;84.66;95866.84;4994593;28;20206;-80
2023/12/07 07:36:20;;;;;;;7.47;5.20;;;;;;;-0.03;84.28;95865.94;4976265;28;20572;-80
2023/12/07 07:38:46;;;;;;;11.03;5.20;;;;;;;-0.06;84.05;95861.81;4973646;28;20287;-80
2023/12/07 07:41:11;;;;;;;6.97;5.30;;;;;;;0.00;84.04;95865.81;4975887;28;20210;-80
2023/12/07 07:43:37;;;;;;;7.63;5.17;;;;;;;0.02;83.15;95873.38;4977375;28;20210;-80
2023/12/07 07:46:06;;;;;;;7.10;4.80;;;;;;;0.09;83.05;95870.44;4959840;28;20176;-80
2023/12/07 07:48:31;;;;;;;11.60;4.70;;;;;;;-0.02;82.26;95881.16;4958552;28;20179;-80
2023/12/07 07:50:57;;;;;;;7.87;5.03;;;;;;;0.09;82.33;95880.66;4975661;28;20570;-79
2023/12/07 07:53:23;;;;;;;7.73;5.53;;;;;;;0.10;81.53;95884.88;4974713;28;20202;-78
2023/12/07 07:55:49;;;;;;;6.93;4.97;;;;;;;0.18;81.76;95882.75;4979584;28;20266;-78
2023/12/07 07:58:14;;;;;;;7.80;5.00;;;;;;;0.14;81.76;95883.81;4978143;28;21131;-78
2023/12/07 08:00:39;;;;;;;7.40;5.10;;;;;;;0.30;80.92;95888.16;4975357;28;20233;-78
2023/12/07 08:03:05;;;;;;;7.83;5.40;;;;;;;0.38;81.12;95880.94;4973533;28;20286;-78
2023/12/07 08:05:30;;;;;;;8.17;6.10;;;;;;;0.45;80.51;95884.81;4977728;28;20210;-79
2023/12/07 08:07:56;;;;;;;7.33;6.43;;;;;;;0.45;80.70;95887.38;4949980;28;20181;-80
2023/12/07 08:10:21;;;;;;;12.30;5.50;;;;;;;0.49;80.12;95888.88;4975716;28;20695;-81
2023/12/07 08:12:46;;;;;;;7.07;4.97;;;;;;;0.37;79.89;95884.38;4973466;28;20246;-82
2023/12/07 08:15:12;;;;;;;5.30;4.63;;;;;;;0.43;79.42;95895.09;4974161;28;20269;-81
2023/12/07 08:17:41;;;;;;;6.57;4.07;;;;;;;0.46;78.75;95891.59;4975897;28;20183;-80
2023/12/07 08:20:10;;;;;;;7.77;4.47;;;;;;;0.62;78.07;95895.00;4977515;28;20191;-79
2023/12/07 08:22:40;;;;;;;6.50;4.43;;;;;;;0.71;78.13;95906.50;4974256;28;20278;-80
2023/12/07 08:25:07;;;;;;;6.10;3.90;;;;;;;0.68;77.54;95904.09;4957989;28;20522;-81
2023/12/07 08:27:32;;;;;;;9.00;4.47;;;;;;;0.83;77.69;95888.78;4974793;28;20195;-81
2023/12/07 08:29:58;;;;;;;7.13;4.33;;;;;;;0.99;77.02;95878.56;4967743;28;20553;-80
2023/12/07 08:32:25;;;;;;;5.77;4.37;;;;;;;1.10;76.52;95873.69;4974505;28;20191;-79
2023/12/07 08:34:51;;;;;;;8.90;4.23;;;;;;;1.20;76.44;95875.75;4954435;28;20207;-81
2023/12/07 08:37:16;;;;;;;6.63;4.67;;;;;;;1.19;76.35;95864.72;4962376;28;20180;-82
2023/12/07 08:39:42;;;;;;;10.60;7.10;;;;;;;1.26;76.03;95860.91;4974008;28;20295;-83
2023/12/07 08:42:10;;;;;;;9.37;4.90;;;;;;;1.36;75.60;95856.13;4990992;28;20254;-80
2023/12/07 08:44:35;;;;;;;5.53;4.50;;;;;;;1.37;75.80;95857.75;4976848;28;20660;-81
2023/12/07 08:47:01;;;;;;;5.33;4.50;;;;;;;1.42;75.52;95856.63;4972654;28;20202;-79
2023/12/07 08:49:27;;;;;;;5.93;4.27;;;;;;;1.25;76.20;95869.50;4974748;28;20187;-79
2023/12/07 08:51:52;;;;;;;4.60;4.10;;;;;;;1.44;75.94;95866.75;4990697;28;20188;-80
2023/12/07 08:54:18;;;;;;;6.03;4.77;;;;;;;1.43;75.59;95872.78;4977654;28;20265;-79
2023/12/07 08:56:44;;;;;;;7.10;4.77;;;;;;;1.56;75.78;95876.31;4974232;28;20678;-80
2023/12/07 08:59:10;;;;;;;6.03;4.70;;;;;;;1.56;75.67;95865.25;4991974;28;20191;-80
2023/12/07 09:01:35;;;;;;;5.90;4.00;;;;;;;1.58;75.02;95858.31;4959037;28;20188;-80
2023/12/07 09:04:01;;;;;;;6.30;4.40;;;;;;;1.53;75.41;95852.63;4959668;28;20220;-79
2023/12/07 09:06:26;;;;;;;5.33;4.50;;;;;;;1.55;74.98;95855.91;4971998;28;20737;-79
2023/12/07 09:08:51;;;;;;;6.77;4.50;;;;;;;1.77;75.03;95855.53;4992945;28;20215;-80
2023/12/07 09:11:17;;;;;;;5.77;4.40;;;;;;;1.73;74.77;95849.78;4974605;28;20192;-80
2023/12/07 09:13:42;;;;;;;10.53;4.40;;;;;;;1.86;73.97;95850.75;4971920;28;20274;-79
2023/12/07 09:16:08;;;;;;;6.03;4.43;;;;;;;1.98;74.11;95844.91;4992399;28;20581;-80
2023/12/07 09:18:35;;;;;;;6.97;4.60;;;;;;;2.05;73.71;95849.69;4974331;28;20662;-80
2023/12/07 09:21:00;;;;;;;6.30;4.83;;;;;;;2.18;73.16;95842.91;4976469;28;20196;-79
2023/12/07 09:23:26;;;;;;;7.90;5.10;;;;;;;2.13;73.05;95850.88;4990118;28;20253;-80
2023/12/07 09:25:51;;;;;;;7.57;5.00;;;;;;;2.19;72.44;95852.25;4976315;28;20187;-81
2023/12/07 09:28:17;;;;;;;7.60;4.87;;;;;;;2.06;73.48;95856.44;4963082;28;20584;-81
2023/12/07 09:30:42;;;;;;;6.10;4.70;;;;;;;2.24;72.35;95848.53;4977637;28;20176;-80
2023/12/07 09:33:09;;;;;;;6.60;5.00;;;;;;;2.14;72.57;95846.59;4977783;28;20180;-80
2023/12/07 09:35:34;;;;;;;6.10;4.73;;;;;;;2.21;72.52;95843.59;4968531;28;20207;-81
2023/12/07 09:37:59;;;;;;;5.67;4.43;;;;;;;2.14;71.24;95849.16;4970484;28;20191;-80
2023/12/07 09:40:25;;;;;;;5.97;4.60;;;;;;;2.20;70.45;95846.22;4978878;28;20180;-81
2023/12/07 09:42:51;;;;;;;5.80;4.30;;;;;;;2.33;70.60;95842.03;4996138;28;20271;-81
2023/12/07 09:45:18;;;;;;;6.97;4.20;;;;;;;2.31;70.55;95843.03;4980187;28;20204;-81
2023/12/07 09:47:48;;;;;;;5.60;3.90;;;;;;;2.40;70.03;95840.75;4978113;28;20185;-81
2023/12/07 09:50:15;;;;;;;4.80;4.00;;;;;;;2.32;68.20;95848.06;4961319;28;20207;-82
2023/12/07 09:52:42;;;;;;;4.37;3.97;;;;;;;2.50;68.83;95841.84;4961490;28;20195;-80
2023/12/07 09:55:08;;;;;;;4.90;3.47;;;;;;;2.60;67.97;95839.56;4978054;28;20645;-81
2023/12/07 09:57:33;;;;;;;5.20;3.40;;;;;;;2.60;67.10;95838.75;4976778;28;20262;-80
2023/12/07 09:59:59;;;;;;;5.30;3.77;;;;;;;2.65;65.80;95839.28;4978008;28;20198;-80
2023/12/07 10:02:25;;;;;;;4.30;3.13;;;;;;;2.71;66.17;95826.91;4974299;28;20194;-80
2023/12/07 10:05:04;;;;;;;4.47;3.67;;;;;;;2.77;67.00;95818.03;4976017;28;20893;-83
2023/12/07 10:07:34;;;;;;;6.20;3.63;;;;;;;2.70;66.44;95820.13;4995538;28;20190;-82
2023/12/07 10:09:59;;;;;;;5.10;3.70;;;;;;;2.57;67.11;95813.31;4959377;28;20230;-81
2023/12/07 10:12:25;;;;;;;6.00;3.90;;;;;;;2.84;66.71;95814.19;4978773;28;20179;-82
2023/12/07 10:14:50;;;;;;;7.03;4.07;;;;;;;2.78;67.08;95814.56;4959625;28;20216;-82
2023/12/07 10:17:15;;;;;;;5.30;4.37;;;;;;;2.78;66.73;95809.41;4983312;28;20192;-82
2023/12/07 10:19:41;;;;;;;5.90;4.47;;;;;;;2.88;66.40;95802.81;4984554;28;20219;-82
2023/12/07 10:22:13;;;;;;;6.47;4.87;;;;;;;3.01;67.32;95800.31;4977839;28;20194;-82
2023/12/07 10:24:38;;;;;;;5.87;3.70;;;;;;;2.84;65.78;95796.22;4960762;28;20219;-83
2023/12/07 10:27:06;;;;;;;5.57;4.00;;;;;;;2.87;65.06;95813.97;4985071;28;20191;-81
2023/12/07 10:29:35;;;;;;;5.87;3.77;;;;;;;2.90;64.94;95807.84;4977370;28;20201;-81
2023/12/07 10:32:04;;;;;;;5.80;3.90;;;;;;;3.00;64.83;95809.72;4971509;28;20234;-82
2023/12/07 10:34:31;;;;;;;3.90;3.50;;;;;;;2.87;64.72;95813.97;4993781;28;20570;-81
2023/12/07 10:36:57;;;;;;;4.23;3.80;;;;;;;3.07;64.69;95812.75;4977023;28;20211;-82
2023/12/07 10:39:24;;;;;;;4.90;3.60;;;;;;;3.02;64.91;95805.34;4978132;28;20191;-80
2023/12/07 10:41:52;;;;;;;5.77;3.50;;;;;;;3.12;65.23;95805.59;4978589;28;20176;-81
2023/12/07 10:44:18;;;;;;;7.33;3.80;;;;;;;3.11;65.35;95806.53;4980567;28;20215;-81
2023/12/07 10:46:44;;;;;;;6.07;3.70;;;;;;;3.06;64.43;95791.41;4993893;28;20190;-80
2023/12/07 10:49:16;;;;;;;4.57;3.43;;;;;;;3.02;63.96;95784.81;4977977;28;20184;-80
2023/12/07 10:51:45;;;;;;;5.60;3.73;;;;;;;3.12;64.68;95778.19;4977187;28;20192;-81
2023/12/07 10:54:14;;;;;;;4.13;3.73;;;;;;;3.14;64.96;95770.41;4975826;28;20215;-82
2023/12/07 10:56:45;;;;;;;4.90;3.90;;;;;;;3.17;64.41;95770.19;4993541;28;20796;-81
2023/12/07 10:59:12;;;;;;;6.77;4.43;;;;;;;3.29;64.21;95764.28;4992955;28;20269;-80
2023/12/07 11:01:42;;;;;;;5.33;3.97;;;;;;;3.31;64.87;95764.19;4976546;28;20176;-83
2023/12/07 11:04:11;;;;;;;5.80;4.40;;;;;;;3.33;64.95;95752.91;4968749;28;20216;-81
2023/12/07 11:06:38;;;;;;;6.30;4.73;;;;;;;3.19;65.87;95744.44;4976149;28;20194;-82
2023/12/07 11:09:07;;;;;;;8.67;5.40;;;;;;;3.38;66.09;95738.03;4983891;28;20566;-81
2023/12/07 11:11:41;;;;;;;6.13;4.43;;;;;;;3.42;65.68;95741.22;4985200;28;20658;-81
2023/12/07 11:14:08;;;;;;;7.60;4.70;;;;;;;3.36;66.57;95739.88;4977211;28;20208;-80
2023/12/07 11:16:40;;;;;;;4.37;3.80;;;;;;;3.26;66.71;95731.09;4956606;28;20292;-82
2023/12/07 11:19:26;;;;;;;4.63;3.63;;;;;;;3.52;65.40;95724.28;4959990;28;20194;-80
2023/12/07 11:21:51;;;;;;;4.33;3.93;;;;;;;3.57;65.69;95724.00;4991523;28;20180;-81
2023/12/07 11:24:17;;;;;;;4.43;4.03;;;;;;;3.52;65.57;95716.56;4970778;28;20208;-81
2023/12/07 11:26:44;;;;;;;4.70;3.80;;;;;;;3.60;65.14;95716.91;4975948;28;20551;-81
2023/12/07 11:29:09;;;;;;;4.13;3.63;;;;;;;3.47;66.34;95710.94;4979500;28;20180;-81
2023/12/07 11:31:36;;;;;;;4.70;3.60;;;;;;;3.62;65.63;95704.81;4972479;28;20247;-80